Time;durP1;ratioP1;P1;durP2;ratioP2;P2;SDS_P1;SDS_P2;PMS_P1;PMS_P2;Temp;Humidity;BMP_temperature;BMP_pressure;BME280_temperature;BME280_humidity;BME280_pressure;Samples;Min_cycle;Max_cycle;Signal;HPM_P1;HPM_P2
2023/05/01 00:00:09;;;;;;;19.23;7.28;;;;;;;5.06;100.00;101524.09;4850006;29;20050;-70
2023/05/01 00:02:36;;;;;;;18.15;6.72;;;;;;;5.01;100.00;101524.44;4869534;29;20132;-71
2023/05/01 00:05:03;;;;;;;16.25;7.13;;;;;;;5.02;100.00;101526.13;4888177;29;20072;-71
2023/05/01 00:07:30;;;;;;;14.93;6.50;;;;;;;4.94;100.00;101524.94;4876419;29;20072;-70
2023/05/01 00:09:56;;;;;;;18.48;6.72;;;;;;;4.92;100.00;101529.50;4866109;29;20045;-71
2023/05/01 00:12:24;;;;;;;15.75;6.40;;;;;;;4.95;100.00;101523.97;4866357;29;20058;-71
2023/05/01 00:14:53;;;;;;;14.73;6.35;;;;;;;4.94;100.00;101530.28;4863936;29;20064;-71
2023/05/01 00:17:21;;;;;;;12.88;5.55;;;;;;;4.92;100.00;101529.50;4863919;29;20046;-71
2023/05/01 00:19:52;;;;;;;12.60;6.10;;;;;;;4.87;100.00;101529.84;4865011;29;20053;-71
2023/05/01 00:22:18;;;;;;;13.63;5.60;;;;;;;4.93;100.00;101531.19;4865941;29;20057;-72
2023/05/01 00:24:47;;;;;;;17.00;6.40;;;;;;;4.87;100.00;101520.97;4863729;29;20064;-71
2023/05/01 00:27:14;;;;;;;15.18;6.43;;;;;;;4.82;100.00;101523.94;4856483;29;20053;-71
2023/05/01 00:32:10;;;;;;;20.23;6.70;;;;;;;4.74;100.00;101510.34;4863263;29;20045;-71
2023/05/01 00:34:37;;;;;;;12.07;5.95;;;;;;;4.72;100.00;101513.09;4866170;29;20056;-71
2023/05/01 00:37:03;;;;;;;22.90;7.00;;;;;;;4.74;100.00;101513.00;4866531;29;20060;-70
2023/05/01 00:39:30;;;;;;;14.32;6.50;;;;;;;4.75;100.00;101514.69;4865632;29;20057;-70
2023/05/01 00:41:56;;;;;;;16.40;6.70;;;;;;;4.73;100.00;101511.31;4867136;29;20050;-71
2023/05/01 00:44:23;;;;;;;11.88;6.13;;;;;;;4.77;100.00;101510.13;4866088;29;20132;-71
2023/05/01 00:46:49;;;;;;;14.63;6.15;;;;;;;4.63;100.00;101504.91;4864278;29;20426;-71
2023/05/01 00:49:16;;;;;;;14.63;5.88;;;;;;;4.57;100.00;101508.81;4865292;29;20049;-71
2023/05/01 00:51:48;;;;;;;16.33;6.10;;;;;;;4.44;100.00;101505.25;4866480;29;20059;-71
2023/05/01 00:54:14;;;;;;;20.77;6.03;;;;;;;4.34;100.00;101497.84;4867089;29;20072;-71
2023/05/01 00:56:41;;;;;;;12.43;5.63;;;;;;;4.36;100.00;101503.06;4866640;29;20049;-71
2023/05/01 00:59:08;;;;;;;15.70;6.30;;;;;;;4.36;100.00;101502.22;4869466;29;20132;-70
2023/05/01 01:01:34;;;;;;;18.40;6.13;;;;;;;4.38;100.00;101503.84;4868176;29;20049;-71
2023/05/01 01:04:01;;;;;;;15.18;6.43;;;;;;;4.34;100.00;101495.19;4874665;29;20045;-71
2023/05/01 01:07:20;;;;;;;14.77;6.50;;;;;;;4.31;100.00;101491.88;4866572;29;20128;-71
2023/05/01 01:10:05;;;;;;;12.98;6.32;;;;;;;4.31;100.00;101497.19;4867725;29;20041;-71
2023/05/01 01:12:49;;;;;;;19.05;6.95;;;;;;;4.36;100.00;101494.25;4864115;29;20088;-71
2023/05/01 01:15:33;;;;;;;17.45;6.15;;;;;;;4.37;100.00;101494.13;4870844;29;20052;-70
2023/05/01 01:18:28;;;;;;;17.55;6.50;;;;;;;4.33;100.00;101489.97;4864800;29;20046;-70
2023/05/01 01:21:17;;;;;;;19.48;7.13;;;;;;;4.11;100.00;101487.88;4863434;29;20057;-71
2023/05/01 01:24:12;;;;;;;16.65;6.82;;;;;;;4.06;100.00;101487.31;4862768;29;20055;-70
2023/05/01 01:26:57;;;;;;;13.73;7.18;;;;;;;3.98;100.00;101489.63;4864999;29;20057;-70
2023/05/01 01:32:15;;;;;;;18.50;7.50;;;;;;;3.95;100.00;101480.06;4869105;29;20117;-70
2023/05/01 01:34:46;;;;;;;19.15;7.18;;;;;;;4.04;100.00;101484.78;4870968;29;20137;-71
2023/05/01 01:37:23;;;;;;;21.42;7.68;;;;;;;3.91;100.00;101472.41;4869226;29;20054;-71
2023/05/01 01:39:56;;;;;;;17.83;8.15;;;;;;;3.80;100.00;101475.75;4871710;29;20068;-70
2023/05/01 01:42:35;;;;;;;19.60;7.88;;;;;;;3.73;100.00;101463.81;4867004;29;20140;-70
2023/05/01 01:45:09;;;;;;;19.52;7.68;;;;;;;3.71;100.00;101476.31;4871514;29;20064;-69
2023/05/01 01:47:40;;;;;;;14.48;7.47;;;;;;;3.65;100.00;101469.56;4870905;29;20052;-71
2023/05/01 01:50:09;;;;;;;18.10;7.75;;;;;;;3.56;100.00;101467.53;4872237;29;20041;-69
2023/05/01 01:52:39;;;;;;;15.80;7.47;;;;;;;3.51;100.00;101467.78;4882224;29;20051;-69
2023/05/01 01:58:04;;;;;;;21.00;8.10;;;;;;;3.55;100.00;101463.16;5480304;23;20024;-70
2023/05/01 02:00:33;;;;;;;17.10;8.40;;;;;;;3.61;100.00;101462.75;5277224;23;20091;-70
2023/05/01 02:03:02;;;;;;;22.80;7.90;;;;;;;3.63;100.00;101461.72;4950700;29;20034;-71
2023/05/01 02:05:31;;;;;;;24.65;8.57;;;;;;;3.67;100.00;101466.84;4947579;28;20024;-71
2023/05/01 02:07:59;;;;;;;20.05;8.07;;;;;;;3.73;100.00;101461.16;4956027;28;20051;-69
2023/05/01 02:10:27;;;;;;;20.23;9.23;;;;;;;3.78;100.00;101448.44;5314303;23;20063;-69
2023/05/01 02:12:57;;;;;;;15.52;7.80;;;;;;;3.70;100.00;101454.22;4961735;23;20055;-70
2023/05/01 02:15:25;;;;;;;17.02;8.27;;;;;;;3.80;100.00;101450.03;4930184;29;20050;-71
2023/05/01 02:17:52;;;;;;;20.70;9.07;;;;;;;3.75;100.00;101454.78;4937627;29;20100;-71
2023/05/01 02:20:20;;;;;;;18.33;8.90;;;;;;;3.73;100.00;101448.72;5003855;23;20051;-70
2023/05/01 02:22:49;;;;;;;22.60;9.00;;;;;;;3.73;100.00;101446.09;5107661;23;20103;-70
2023/05/01 02:25:16;;;;;;;19.90;8.20;;;;;;;3.79;100.00;101444.81;4938035;29;20100;-70
2023/05/01 02:27:46;;;;;;;16.50;8.25;;;;;;;3.74;100.00;101438.97;5163002;23;20028;-70
2023/05/01 02:30:13;;;;;;;19.17;8.52;;;;;;;3.57;100.00;101438.22;4932639;29;20092;-69
2023/05/01 02:32:40;;;;;;;18.02;8.02;;;;;;;3.61;100.00;101437.09;4902328;29;20083;-71
2023/05/01 02:35:07;;;;;;;17.88;8.73;;;;;;;3.66;100.00;101425.34;4998015;23;20051;-70
2023/05/01 02:37:33;;;;;;;17.77;9.13;;;;;;;3.58;100.00;101421.34;4937068;29;20052;-69
2023/05/01 02:40:01;;;;;;;17.48;8.43;;;;;;;3.63;100.00;101421.94;4920688;29;20112;-71
2023/05/01 02:42:28;;;;;;;22.40;9.02;;;;;;;3.63;100.00;101423.72;4940079;29;20047;-71
2023/05/01 02:45:22;;;;;;;19.45;8.93;;;;;;;3.67;100.00;101424.38;5077261;23;20047;-70
2023/05/01 02:47:52;;;;;;;16.00;8.20;;;;;;;3.60;100.00;101418.63;4936846;29;20035;-69
2023/05/01 02:50:20;;;;;;;18.02;7.93;;;;;;;3.42;100.00;101412.69;4940291;29;20055;-70
2023/05/01 02:52:47;;;;;;;21.85;8.55;;;;;;;3.36;100.00;101415.72;4937344;29;20021;-70
2023/05/01 02:55:14;;;;;;;19.02;9.10;;;;;;;3.41;100.00;101410.97;4940968;29;20095;-69
2023/05/01 02:57:40;;;;;;;24.23;8.75;;;;;;;3.29;100.00;101404.63;4940707;29;20157;-69
2023/05/01 03:00:08;;;;;;;16.60;8.20;;;;;;;3.30;100.00;101406.34;5055039;23;20024;-70
2023/05/01 03:02:35;;;;;;;20.98;8.25;;;;;;;3.29;100.00;101401.13;4941040;29;20048;-70
2023/05/01 03:05:01;;;;;;;19.27;8.50;;;;;;;3.30;100.00;101390.41;4940431;29;20044;-70
2023/05/01 03:07:33;;;;;;;24.25;8.70;;;;;;;3.22;100.00;101400.66;4940299;29;20059;-69
2023/05/01 03:10:02;;;;;;;20.27;8.57;;;;;;;3.14;100.00;101397.66;4939928;29;20047;-69
2023/05/01 03:12:30;;;;;;;23.58;9.02;;;;;;;3.17;100.00;101397.47;4939675;29;20048;-69
2023/05/01 03:14:56;;;;;;;20.40;8.85;;;;;;;3.12;100.00;101386.28;4940362;29;20039;-71
2023/05/01 03:17:23;;;;;;;18.50;8.32;;;;;;;3.18;100.00;101385.91;4940108;29;20036;-70
2023/05/01 03:19:50;;;;;;;17.30;8.13;;;;;;;3.16;100.00;101379.84;4941142;29;20048;-70
2023/05/01 03:22:17;;;;;;;20.10;8.30;;;;;;;3.13;100.00;101385.31;4940595;29;20028;-70
2023/05/01 03:24:43;;;;;;;24.98;8.02;;;;;;;3.03;100.00;101374.47;4940151;29;20095;-70
2023/05/01 03:29:46;;;;;;;16.77;7.85;;;;;;;3.15;100.00;101367.53;5098815;23;20047;-69
2023/05/01 03:32:12;;;;;;;16.95;7.32;;;;;;;3.17;100.00;101370.06;4921234;29;20092;-69
2023/05/01 03:34:39;;;;;;;14.13;7.05;;;;;;;3.13;100.00;101380.91;4921218;29;20047;-69
2023/05/01 03:37:05;;;;;;;19.08;7.95;;;;;;;3.01;100.00;101375.50;4921573;29;20108;-70
2023/05/01 03:39:32;;;;;;;18.65;8.18;;;;;;;3.03;100.00;101369.16;4920838;29;20051;-70
2023/05/01 03:41:58;;;;;;;19.33;9.10;;;;;;;3.01;100.00;101368.41;4921322;29;20032;-71
2023/05/01 03:44:25;;;;;;;22.00;8.45;;;;;;;2.97;100.00;101372.19;4920872;29;20436;-70
2023/05/01 03:46:51;;;;;;;17.17;7.72;;;;;;;2.91;100.00;101381.38;4921414;29;20037;-69
2023/05/01 03:49:18;;;;;;;20.02;8.30;;;;;;;2.93;100.00;101377.75;4919822;29;20124;-70
2023/05/01 03:51:44;;;;;;;17.20;7.47;;;;;;;2.94;100.00;101375.03;4920577;29;20035;-70
2023/05/01 03:54:11;;;;;;;16.42;8.00;;;;;;;2.90;100.00;101371.72;4920145;29;20080;-70
2023/05/01 03:56:37;;;;;;;15.07;8.07;;;;;;;2.93;100.00;101370.69;4921107;29;20035;-70
2023/05/01 03:59:04;;;;;;;18.10;7.45;;;;;;;2.91;100.00;101375.22;4920120;29;20059;-71
2023/05/01 04:01:32;;;;;;;21.40;8.90;;;;;;;3.00;100.00;101373.81;4950635;23;20032;-70
2023/05/01 04:03:59;;;;;;;20.75;8.25;;;;;;;2.95;100.00;101367.94;4959168;28;20047;-70
2023/05/01 04:06:25;;;;;;;21.23;8.10;;;;;;;3.13;100.00;101372.06;4958081;29;20042;-70
2023/05/01 04:08:52;;;;;;;15.82;8.00;;;;;;;3.21;100.00;101367.16;4958505;29;20047;-70
2023/05/01 04:11:19;;;;;;;18.95;7.75;;;;;;;3.18;100.00;101363.84;4958447;29;20071;-70
2023/05/01 04:13:46;;;;;;;17.48;7.65;;;;;;;3.28;100.00;101363.16;4958745;28;20048;-70
2023/05/01 04:16:13;;;;;;;21.13;7.90;;;;;;;3.28;100.00;101367.63;4959061;29;20047;-70
2023/05/01 04:18:39;;;;;;;19.55;8.75;;;;;;;3.35;100.00;101364.47;4958258;29;20051;-70
2023/05/01 04:21:06;;;;;;;16.15;7.13;;;;;;;3.35;100.00;101360.97;4957996;28;20061;-70
2023/05/01 04:23:32;;;;;;;15.63;7.25;;;;;;;3.39;100.00;101360.69;4952182;29;20063;-70
2023/05/01 04:25:59;;;;;;;18.85;7.80;;;;;;;3.42;100.00;101364.09;4958092;29;20040;-70
2023/05/01 04:28:26;;;;;;;18.05;8.00;;;;;;;3.46;100.00;101361.13;4957979;28;20095;-70
2023/05/01 04:30:53;;;;;;;15.45;7.88;;;;;;;3.50;100.00;101356.47;4947879;29;20055;-70
2023/05/01 04:33:19;;;;;;;17.63;6.80;;;;;;;3.50;100.00;101356.47;4939088;29;20108;-70
2023/05/01 04:35:46;;;;;;;15.00;6.68;;;;;;;3.58;100.00;101364.78;5042481;23;21130;-69
2023/05/01 04:38:12;;;;;;;23.52;7.45;;;;;;;3.76;100.00;101355.66;5259717;23;20076;-71
2023/05/01 04:40:39;;;;;;;14.95;7.13;;;;;;;3.74;100.00;101354.88;4938649;29;20116;-71
2023/05/01 04:43:05;;;;;;;15.35;7.57;;;;;;;3.84;100.00;101349.84;4938222;29;20096;-70
2023/05/01 04:45:32;;;;;;;18.58;7.13;;;;;;;3.92;100.00;101349.31;4937719;29;20044;-70
2023/05/01 04:47:58;;;;;;;17.52;6.80;;;;;;;3.95;100.00;101347.31;4938182;29;20111;-71
2023/05/01 04:50:25;;;;;;;15.18;6.50;;;;;;;3.97;100.00;101349.88;4938831;29;20048;-70
2023/05/01 04:52:52;;;;;;;21.27;6.60;;;;;;;4.03;100.00;101345.00;4938748;29;20064;-71
2023/05/01 04:55:18;;;;;;;22.02;7.78;;;;;;;3.94;100.00;101350.09;4938395;29;20040;-71
2023/05/01 04:57:45;;;;;;;17.08;6.57;;;;;;;4.08;100.00;101347.34;4938243;29;20028;-71
2023/05/01 05:00:12;;;;;;;17.17;7.57;;;;;;;4.13;100.00;101355.00;4937021;29;20059;-71
2023/05/01 05:02:38;;;;;;;11.20;5.45;;;;;;;4.21;100.00;101342.94;4948401;29;20067;-71
2023/05/01 05:05:05;;;;;;;14.23;6.68;;;;;;;4.27;100.00;101346.94;4957443;29;20051;-70
2023/05/01 05:07:32;;;;;;;12.05;6.28;;;;;;;4.22;100.00;101351.75;4956895;29;20103;-71
2023/05/01 05:09:58;;;;;;;17.13;6.22;;;;;;;4.28;100.00;101354.84;4957160;29;20047;-70
2023/05/01 05:12:25;;;;;;;15.68;6.72;;;;;;;4.26;100.00;101347.91;4951923;29;20035;-70
2023/05/01 05:14:52;;;;;;;20.73;5.57;;;;;;;4.34;100.00;101346.41;4956930;29;20048;-71
2023/05/01 05:17:18;;;;;;;15.02;5.80;;;;;;;4.42;100.00;101340.66;4957855;29;20091;-71
2023/05/01 05:19:45;;;;;;;19.25;6.53;;;;;;;4.44;100.00;101336.06;4956911;29;20063;-70
2023/05/01 05:22:11;;;;;;;15.52;5.60;;;;;;;4.49;100.00;101335.75;4957303;28;20035;-71
2023/05/01 05:24:38;;;;;;;15.55;5.65;;;;;;;4.53;100.00;101337.25;4956009;29;20043;-70
2023/05/01 05:27:06;;;;;;;12.93;6.07;;;;;;;4.46;100.00;101331.50;4956863;29;20052;-70
2023/05/01 05:29:33;;;;;;;16.98;6.30;;;;;;;4.57;100.00;101328.09;4956952;29;20103;-71
2023/05/01 05:32:00;;;;;;;12.35;6.05;;;;;;;4.66;100.00;101327.47;4931363;29;20048;-70
2023/05/01 05:34:27;;;;;;;18.13;5.72;;;;;;;4.85;100.00;101326.16;4937254;29;20032;-70
2023/05/01 05:36:53;;;;;;;13.00;5.38;;;;;;;4.93;100.00;101318.50;4936661;29;20055;-71
2023/05/01 05:39:22;;;;;;;13.43;5.68;;;;;;;5.02;100.00;101315.19;4937059;29;20036;-69
2023/05/01 05:41:51;;;;;;;14.60;4.75;;;;;;;5.11;98.45;101317.19;4937093;29;20052;-69
2023/05/01 05:44:17;;;;;;;12.00;5.65;;;;;;;5.24;93.75;101317.97;4937711;29;20059;-69
2023/05/01 05:46:44;;;;;;;11.85;5.32;;;;;;;5.29;94.61;101310.53;4936964;29;20988;-70
2023/05/01 05:49:11;;;;;;;16.60;4.88;;;;;;;5.39;91.23;101309.88;4937638;29;20064;-70
2023/05/01 05:51:37;;;;;;;14.18;5.72;;;;;;;5.33;92.29;101310.31;5032090;23;20051;-70
2023/05/01 05:54:04;;;;;;;14.10;5.40;;;;;;;5.39;91.84;101317.84;4938347;29;20032;-70
2023/05/01 05:56:30;;;;;;;15.85;5.47;;;;;;;5.49;89.88;101316.19;5039594;23;20060;-69
2023/05/01 05:58:57;;;;;;;13.05;4.88;;;;;;;5.73;88.64;101313.53;4929358;29;20067;-69
2023/05/01 06:01:23;;;;;;;16.30;5.57;;;;;;;5.75;89.15;101309.81;4937822;29;20111;-69
2023/05/01 06:03:50;;;;;;;14.77;5.07;;;;;;;5.97;86.02;101306.38;5057457;23;20036;-70
2023/05/01 06:06:16;;;;;;;16.27;4.70;;;;;;;5.93;82.56;101304.06;4937600;29;20056;-70
2023/05/01 06:08:45;;;;;;;26.58;8.05;;;;;;;6.25;80.40;101312.25;4937501;29;20055;-70
2023/05/01 06:11:11;;;;;;;13.98;5.15;;;;;;;6.13;79.40;101306.06;4938016;29;20036;-70
2023/05/01 06:13:38;;;;;;;13.07;4.50;;;;;;;6.32;77.32;101310.88;4919450;29;20052;-70
2023/05/01 06:16:06;;;;;;;11.55;4.93;;;;;;;6.10;77.65;101305.44;4936730;29;20024;-71
2023/05/01 06:21:15;;;;;;;12.40;4.43;;;;;;;5.89;76.74;101311.44;5359961;23;20043;-66
2023/05/01 06:23:41;;;;;;;13.82;4.55;;;;;;;6.41;75.51;101315.47;4913723;29;20062;-64
2023/05/01 06:26:08;;;;;;;10.95;4.32;;;;;;;6.65;73.06;101315.38;4914611;29;20052;-65
2023/05/01 06:28:35;;;;;;;12.65;4.50;;;;;;;6.81;71.41;101307.03;4913057;29;20131;-65
2023/05/01 06:31:01;;;;;;;12.52;4.22;;;;;;;6.36;71.40;101314.16;4902368;29;20436;-65
2023/05/01 06:33:28;;;;;;;11.93;5.10;;;;;;;6.28;72.23;101308.53;4897078;29;20055;-70
2023/05/01 06:35:55;;;;;;;12.70;4.78;;;;;;;6.68;71.58;101311.63;4892458;29;20053;-70
2023/05/01 06:38:21;;;;;;;8.32;4.82;;;;;;;7.10;70.50;101301.19;4911416;29;20052;-69
2023/05/01 06:40:51;;;;;;;11.70;4.68;;;;;;;7.26;69.75;101301.66;4911000;29;20112;-70
2023/05/01 06:43:18;;;;;;;15.48;5.68;;;;;;;7.18;69.78;101299.59;4909389;29;20131;-70
2023/05/01 06:45:45;;;;;;;17.88;4.45;;;;;;;7.66;67.78;101299.22;4910807;29;20132;-70
2023/05/01 06:48:11;;;;;;;18.15;5.05;;;;;;;7.72;67.53;101310.38;4908540;29;20112;-70
2023/05/01 06:50:38;;;;;;;15.40;5.63;;;;;;;8.04;66.17;101297.88;4901015;29;20108;-67
2023/05/01 06:53:05;;;;;;;13.55;4.72;;;;;;;8.42;65.19;101292.91;4918294;29;20036;-69
2023/05/01 06:55:32;;;;;;;13.60;5.10;;;;;;;8.43;64.40;101294.59;4918947;29;20036;-70
2023/05/01 06:58:01;;;;;;;12.23;5.00;;;;;;;8.18;64.98;101293.19;4919309;29;20080;-69
2023/05/01 07:00:38;;;;;;;14.30;5.07;;;;;;;8.26;65.26;101296.03;4914563;29;20044;-70
2023/05/01 07:03:04;;;;;;;11.05;4.80;;;;;;;8.75;63.45;101291.81;5633540;23;20036;-70
2023/05/01 07:05:31;;;;;;;10.07;4.10;;;;;;;8.90;63.33;101290.47;4929334;29;20048;-71
2023/05/01 07:07:57;;;;;;;14.25;5.32;;;;;;;9.20;61.65;101286.06;4927641;29;20051;-70
2023/05/01 07:10:28;;;;;;;11.38;4.75;;;;;;;9.40;61.01;101285.09;4929401;29;20052;-70
2023/05/01 07:12:54;;;;;;;14.98;5.07;;;;;;;9.27;61.46;101284.53;4930035;29;20059;-70
2023/05/01 07:15:21;;;;;;;9.65;4.28;;;;;;;9.98;59.43;101282.44;4929521;29;20055;-70
2023/05/01 07:17:49;;;;;;;10.73;4.07;;;;;;;10.24;58.47;101276.50;4913969;29;20056;-68
2023/05/01 07:20:15;;;;;;;16.10;4.88;;;;;;;10.29;58.05;101276.91;4913335;29;20048;-68
2023/05/01 07:22:42;;;;;;;14.82;4.70;;;;;;;10.31;57.93;101274.09;4915648;29;20075;-70
2023/05/01 07:25:09;;;;;;;13.15;4.57;;;;;;;10.91;56.93;101269.22;4930812;29;20040;-71
2023/05/01 07:27:35;;;;;;;11.52;4.05;;;;;;;11.30;55.53;101269.00;4932252;29;20078;-70
2023/05/01 07:32:37;;;;;;;16.92;4.05;;;;;;;11.70;53.62;101260.53;5002030;23;20040;-71
2023/05/01 07:35:04;;;;;;;12.52;4.70;;;;;;;11.75;53.55;101254.69;4919910;29;20048;-71
2023/05/01 07:37:31;;;;;;;10.75;4.25;;;;;;;10.90;53.90;101257.66;4923175;29;20052;-68
2023/05/01 07:39:57;;;;;;;15.85;4.40;;;;;;;10.45;55.47;101253.00;4916032;29;20044;-66
2023/05/01 07:42:27;;;;;;;11.70;4.75;;;;;;;10.81;54.96;101258.53;4899133;29;20059;-67
2023/05/01 07:44:53;;;;;;;13.02;4.13;;;;;;;10.72;54.36;101249.53;4915420;29;20063;-68
2023/05/01 07:47:20;;;;;;;8.82;3.85;;;;;;;10.57;54.88;101250.16;4916731;29;20426;-69
2023/05/01 07:52:14;;;;;;;14.38;4.15;;;;;;;11.33;53.81;101241.81;5223165;23;20040;-70
2023/05/01 08:00:05;;;;;;;11.75;3.97;;;;;;;11.28;51.69;101231.56;5152176;23;19931;-70
2023/05/01 08:05:10;;;;;;;9.52;4.22;;;;;;;11.87;51.43;101226.56;4896732;29;20041;-70
2023/05/01 08:07:37;;;;;;;13.90;4.20;;;;;;;11.06;52.46;101223.91;4896669;29;20060;-71
2023/05/01 08:10:04;;;;;;;9.90;3.53;;;;;;;11.81;51.46;101227.19;4897989;29;20059;-71
2023/05/01 08:12:31;;;;;;;10.45;3.50;;;;;;;12.66;50.42;101214.75;4897581;29;20033;-71
2023/05/01 08:14:57;;;;;;;12.27;4.00;;;;;;;13.19;49.17;101207.38;4895549;29;20045;-71
2023/05/01 08:17:24;;;;;;;10.52;3.63;;;;;;;12.94;49.38;101207.31;4895295;29;20049;-71
2023/05/01 08:19:52;;;;;;;10.07;3.53;;;;;;;12.15;48.32;101209.28;4893312;29;20467;-70
2023/05/01 08:22:19;;;;;;;12.00;4.22;;;;;;;12.45;49.29;101212.44;4893443;29;20053;-71
2023/05/01 08:24:45;;;;;;;16.27;4.18;;;;;;;12.64;49.06;101203.31;4886112;29;20149;-71
2023/05/01 08:27:12;;;;;;;10.95;3.65;;;;;;;11.61;49.69;101218.41;4893795;29;20063;-71
2023/05/01 08:29:38;;;;;;;10.75;3.78;;;;;;;12.50;49.06;101202.06;4895475;29;20399;-70
2023/05/01 08:32:05;;;;;;;7.63;3.10;;;;;;;13.03;47.51;101200.09;4875878;29;20049;-71
2023/05/01 08:34:32;;;;;;;11.30;3.45;;;;;;;13.70;46.10;101206.25;4875106;29;20072;-71
2023/05/01 08:36:58;;;;;;;10.35;3.40;;;;;;;13.34;45.73;101203.84;4874296;29;20109;-72
2023/05/01 08:39:25;;;;;;;9.40;3.28;;;;;;;13.76;45.18;101196.66;4871656;29;20122;-71
2023/05/01 08:41:52;;;;;;;10.05;3.17;;;;;;;14.47;44.04;101193.13;4873000;29;20061;-71
2023/05/01 08:44:19;;;;;;;6.50;3.13;;;;;;;14.90;42.64;101195.50;4856114;29;20487;-71
2023/05/01 08:46:48;;;;;;;14.18;3.17;;;;;;;14.51;43.05;101180.97;4872486;29;20109;-70
2023/05/01 08:49:16;;;;;;;9.77;3.40;;;;;;;14.65;42.95;101190.19;4874465;29;20525;-71
2023/05/01 08:51:47;;;;;;;15.00;3.72;;;;;;;14.33;42.71;101184.91;4871666;29;20556;-70
2023/05/01 08:54:14;;;;;;;8.15;2.97;;;;;;;13.91;43.34;101178.78;4872506;29;20482;-70
2023/05/01 08:56:43;;;;;;;13.52;3.40;;;;;;;14.44;42.54;101179.13;4872229;29;20061;-71
2023/05/01 08:59:10;;;;;;;6.60;2.90;;;;;;;14.02;42.58;101175.72;4872226;29;20050;-72
2023/05/01 09:01:38;;;;;;;7.90;3.30;;;;;;;14.86;41.80;101180.66;4874182;29;20498;-69
2023/05/01 09:04:06;;;;;;;10.68;3.63;;;;;;;15.15;40.96;101163.75;4887532;29;20498;-71
2023/05/01 09:06:32;;;;;;;8.60;3.35;;;;;;;14.39;41.23;101165.31;4889419;29;20144;-71
2023/05/01 09:08:59;;;;;;;14.27;3.40;;;;;;;13.82;42.40;101161.75;4884023;29;20065;-71
2023/05/01 09:11:27;;;;;;;11.18;3.47;;;;;;;12.98;42.61;101162.03;4872577;29;20053;-71
2023/05/01 09:13:54;;;;;;;8.40;3.00;;;;;;;13.57;41.75;101152.81;4893867;29;20081;-71
2023/05/01 09:16:20;;;;;;;7.38;2.80;;;;;;;14.02;40.74;101147.91;4895282;29;20079;-71
2023/05/01 09:18:48;;;;;;;10.75;2.92;;;;;;;14.62;40.20;101150.03;4894171;29;20041;-70
2023/05/01 09:21:14;;;;;;;8.05;2.85;;;;;;;15.44;39.07;101141.41;4891663;29;20112;-71
2023/05/01 09:23:41;;;;;;;7.70;2.72;;;;;;;15.45;39.38;101134.97;4893884;29;20075;-71
2023/05/01 09:26:07;;;;;;;10.73;3.38;;;;;;;15.67;39.28;101135.97;4895875;29;20105;-70
2023/05/01 09:28:44;;;;;;;7.68;2.83;;;;;;;14.49;39.58;101131.69;4894916;29;20075;-71
2023/05/01 09:31:22;;;;;;;11.48;2.75;;;;;;;14.69;38.76;101128.56;4894692;29;20044;-70
2023/05/01 09:33:54;;;;;;;12.18;3.10;;;;;;;14.90;38.64;101131.50;4893630;29;20068;-71
2023/05/01 09:36:22;;;;;;;8.57;3.17;;;;;;;14.47;39.47;101130.19;4895957;29;20049;-71
2023/05/01 09:38:50;;;;;;;13.25;4.22;;;;;;;14.88;39.75;101116.50;4880763;29;20100;-71
2023/05/01 09:41:19;;;;;;;8.88;3.40;;;;;;;16.24;38.50;101115.59;4895342;29;20045;-71
2023/05/01 09:43:51;;;;;;;7.65;3.13;;;;;;;16.43;36.95;101106.88;4895766;29;20057;-70
2023/05/01 09:46:18;;;;;;;11.40;3.05;;;;;;;17.10;36.03;101097.63;4895843;29;20150;-71
2023/05/01 09:48:59;;;;;;;8.77;2.67;;;;;;;17.60;35.43;101093.06;4897546;29;20053;-70
2023/05/01 09:51:28;;;;;;;8.88;2.97;;;;;;;16.73;36.73;101085.16;4896270;29;20068;-70
2023/05/01 09:53:59;;;;;;;7.03;3.08;;;;;;;17.50;35.57;101087.16;4896365;29;20057;-70
2023/05/01 09:56:27;;;;;;;10.35;3.15;;;;;;;16.21;36.68;101088.91;4897364;29;20045;-70
2023/05/01 09:58:55;;;;;;;6.75;3.22;;;;;;;14.93;38.85;101087.91;4898480;29;20061;-70
2023/05/01 10:01:42;;;;;;;14.82;3.53;;;;;;;16.53;37.43;101074.09;4884728;29;20040;-70
2023/05/01 10:04:09;;;;;;;7.50;3.33;;;;;;;16.36;37.19;101084.28;4881338;29;20035;-70
2023/05/01 10:06:36;;;;;;;8.43;3.22;;;;;;;17.17;36.91;101082.28;4882110;29;20037;-69
2023/05/01 10:09:06;;;;;;;11.93;4.00;;;;;;;16.96;36.74;101074.16;4882379;29;20033;-70
2023/05/01 10:11:50;;;;;;;7.50;2.90;;;;;;;18.06;35.04;101060.78;4882331;29;20029;-70
2023/05/01 10:14:17;;;;;;;9.40;3.17;;;;;;;17.35;35.11;101063.66;4882050;29;20033;-70
2023/05/01 10:16:44;;;;;;;9.68;3.30;;;;;;;16.70;36.52;101059.28;4881575;29;20041;-70
2023/05/01 10:19:11;;;;;;;11.38;3.45;;;;;;;16.42;37.56;101064.56;4882615;29;20040;-69
2023/05/01 10:21:38;;;;;;;7.75;3.17;;;;;;;16.42;37.33;101057.28;4883018;29;20089;-71
2023/05/01 10:24:06;;;;;;;10.90;4.18;;;;;;;15.97;38.51;101058.38;4868405;29;20124;-67
2023/05/01 10:26:33;;;;;;;8.52;3.15;;;;;;;16.96;37.17;101053.31;4856944;29;20055;-66
2023/05/01 10:29:01;;;;;;;8.07;3.30;;;;;;;16.51;37.05;101047.22;4868262;29;20057;-70
2023/05/01 10:31:31;;;;;;;8.57;3.28;;;;;;;16.15;37.60;101044.47;4870772;29;20071;-70
2023/05/01 10:34:01;;;;;;;11.07;3.40;;;;;;;16.71;36.98;101036.56;4876185;29;20073;-70
2023/05/01 10:36:43;;;;;;;9.27;3.47;;;;;;;16.08;37.92;101027.31;4875992;29;20191;-70
2023/05/01 10:39:33;;;;;;;11.95;3.40;;;;;;;16.24;38.08;101037.91;4876159;29;20054;-69
2023/05/01 10:42:02;;;;;;;12.27;3.60;;;;;;;15.97;37.70;101035.91;4866794;29;20057;-69
2023/05/01 10:44:29;;;;;;;10.25;3.63;;;;;;;15.22;38.67;101033.13;4876448;29;20049;-71
2023/05/01 10:46:56;;;;;;;10.80;3.85;;;;;;;13.88;40.89;101027.25;4877772;29;20078;-71
2023/05/01 10:49:23;;;;;;;10.95;3.65;;;;;;;15.28;39.45;101009.09;4878136;29;20129;-70
2023/05/01 10:51:59;;;;;;;7.50;3.30;;;;;;;16.24;38.51;101007.31;4869646;29;20053;-74
2023/05/01 10:54:32;;;;;;;9.50;2.85;;;;;;;15.21;41.20;100998.16;4858310;29;20106;-74
2023/05/01 10:57:01;;;;;;;14.60;3.63;;;;;;;15.04;41.41;101005.59;4859242;29;20464;-75
2023/05/01 11:00:00;;;;;;;11.00;3.88;;;;;;;15.03;44.91;101003.91;4875819;29;20049;-73
2023/05/01 11:02:26;;;;;;;10.77;3.78;;;;;;;15.68;40.06;101002.44;4882302;29;20055;-73
2023/05/01 11:04:54;;;;;;;8.70;3.53;;;;;;;15.15;42.28;100994.31;4899170;29;20048;-75
2023/05/01 11:07:22;;;;;;;9.75;4.07;;;;;;;15.34;40.66;100987.56;4900264;29;20115;-75
2023/05/01 11:09:57;;;;;;;9.27;3.60;;;;;;;14.87;44.06;100985.97;4900155;29;20113;-74
2023/05/01 11:12:45;;;;;;;9.30;3.83;;;;;;;14.75;41.38;100985.59;4900341;29;20089;-72
2023/05/01 11:15:24;;;;;;;11.05;3.95;;;;;;;14.34;43.67;100973.38;4898903;29;20057;-74
2023/05/01 11:17:51;;;;;;;10.13;3.35;;;;;;;14.82;41.08;100968.66;4898281;29;20083;-76
2023/05/01 11:20:24;;;;;;;9.60;3.45;;;;;;;14.42;44.21;100970.59;4898142;29;20055;-74
2023/05/01 11:22:52;;;;;;;12.77;3.70;;;;;;;14.47;43.21;100962.81;4896996;29;20082;-73
2023/05/01 11:25:21;;;;;;;12.93;3.60;;;;;;;14.12;41.40;100975.88;4888473;29;20045;-75
2023/05/01 11:27:49;;;;;;;13.23;3.63;;;;;;;14.97;40.62;100958.72;4896461;29;20052;-74
2023/05/01 11:30:16;;;;;;;13.60;3.80;;;;;;;15.52;39.85;100946.63;4896072;29;20049;-74
2023/05/01 11:32:44;;;;;;;12.13;3.45;;;;;;;15.92;39.45;100952.59;4895901;29;20057;-73
2023/05/01 11:35:31;;;;;;;9.10;3.35;;;;;;;16.07;40.48;100947.16;4895728;29;20046;-70
2023/05/01 11:37:57;;;;;;;10.38;3.25;;;;;;;16.57;37.71;100945.38;4892627;29;20425;-74
2023/05/01 11:40:30;;;;;;;10.15;3.97;;;;;;;16.44;40.12;100935.25;4898501;29;20055;-74
2023/05/01 11:43:04;;;;;;;12.82;4.03;;;;;;;16.81;35.93;100936.84;4896633;29;20059;-75
2023/05/01 11:45:31;;;;;;;8.57;3.55;;;;;;;17.69;35.08;100930.97;4899389;29;20041;-74
2023/05/01 11:47:58;;;;;;;11.77;3.83;;;;;;;17.13;38.08;100929.19;4890015;29;20045;-72
2023/05/01 11:50:35;;;;;;;11.10;3.40;;;;;;;16.97;41.57;100924.06;4899197;29;20045;-74
2023/05/01 11:53:10;;;;;;;6.28;3.58;;;;;;;17.93;36.50;100918.75;4899317;29;20048;-73